Time;durP1;ratioP1;P1;durP2;ratioP2;P2;SDS_P1;SDS_P2;PMS_P1;PMS_P2;Temp;Humidity;BMP_temperature;BMP_pressure;BME280_temperature;BME280_humidity;BME280_pressure;Samples;Min_cycle;Max_cycle;Signal;HPM_P1;HPM_P2
2022/09/21 00:02:31;;;;;;;;;;;13.70;52.10;;;11.08;59.09;102008.88;12254236;19;19914;-86
2022/09/21 00:06:33;;;;;;;;;;;13.30;52.00;;;10.66;59.05;101946.78;12254826;19;20338;-86
2022/09/21 00:10:35;;;;;;;;;;;13.20;51.90;;;10.62;59.17;101956.50;12255297;19;19923;-86
2022/09/21 00:14:36;;;;;;;;;;;13.20;51.90;;;10.98;59.27;102013.56;12252602;19;19915;-86
2022/09/21 00:18:38;;;;;;;;;;;13.20;52.00;;;10.82;59.23;102002.81;12250511;19;19927;-86
2022/09/21 00:22:40;;;;;;;;;;;13.20;51.90;;;10.83;59.33;102020.22;12250741;19;19939;-86
2022/09/21 00:26:42;;;;;;;;;;;13.10;51.80;;;10.66;59.27;102009.47;12251507;19;19933;-86
2022/09/21 00:30:44;;;;;;;;;;;13.10;51.80;;;10.71;59.28;102018.00;12247687;19;19919;-86
2022/09/21 00:34:46;;;;;;;;;;;12.90;51.80;;;10.41;59.33;101980.75;12251215;19;19927;-86
2022/09/21 00:38:56;;;;;;;;;;;12.90;51.90;;;10.63;59.23;102013.06;12258378;19;19939;-86
2022/09/21 00:43:12;;;;;;;;;;;12.90;51.90;;;10.75;59.20;102029.22;12261054;19;19982;-86
2022/09/21 00:47:16;;;;;;;;;;;12.90;52.00;;;10.72;59.35;102022.34;12271975;19;19918;-87
2022/09/21 00:51:17;;;;;;;;;;;12.90;52.00;;;10.71;59.04;102030.22;12267927;19;19978;-86
2022/09/21 00:55:45;;;;;;;;;;;12.90;51.90;;;10.72;59.03;102032.81;12263334;19;19950;-86
2022/09/21 00:59:49;;;;;;;;;;;12.90;51.90;;;10.55;58.96;102015.06;12266281;19;19915;-86
2022/09/21 01:03:52;;;;;;;;;;;12.90;51.80;;;10.56;59.23;102022.03;12262535;19;20340;-86
2022/09/21 01:07:54;;;;;;;;;;;12.90;51.80;;;10.50;59.28;102029.19;12263678;19;19919;-86
2022/09/21 01:12:20;;;;;;;;;;;12.80;51.80;;;10.46;59.31;102041.50;12262985;19;20362;-86
2022/09/21 01:16:44;;;;;;;;;;;12.80;51.80;;;10.43;59.30;102049.47;12260583;19;19944;-86
2022/09/21 01:21:17;;;;;;;;;;;12.70;51.80;;;10.36;59.25;102050.56;12264113;19;19947;-86
2022/09/21 01:25:39;;;;;;;;;;;12.60;51.80;;;10.38;59.35;102061.81;12262596;19;19918;-86
2022/09/21 01:29:46;;;;;;;;;;;12.60;51.90;;;10.37;59.27;102055.75;12264566;19;20341;-86
2022/09/21 01:33:51;;;;;;;;;;;12.60;51.90;;;10.26;59.34;102043.88;12260678;19;19967;-86
2022/09/21 01:38:06;;;;;;;;;;;12.60;51.90;;;10.34;59.43;102062.78;12259828;19;19922;-86
2022/09/21 01:42:09;;;;;;;;;;;12.60;51.90;;;10.27;59.19;102056.06;12261894;19;19951;-86
2022/09/21 01:46:14;;;;;;;;;;;12.50;51.80;;;10.18;58.99;102042.41;12257770;19;20356;-86
2022/09/21 01:50:15;;;;;;;;;;;12.50;51.70;;;10.07;59.13;102023.63;12257896;19;19918;-86
2022/09/21 01:54:29;;;;;;;;;;;12.50;51.80;;;10.17;59.25;102053.72;12256975;19;19918;-86
2022/09/21 01:58:38;;;;;;;;;;;12.50;51.80;;;10.20;59.19;102073.66;12257740;19;20338;-86
2022/09/21 02:02:49;;;;;;;;;;;12.80;51.90;;;10.16;59.46;102065.09;12259077;19;19907;-86
2022/09/21 02:06:51;;;;;;;;;;;12.40;51.80;;;10.07;59.29;102060.16;12260906;19;19922;-86
2022/09/21 02:10:53;;;;;;;;;;;12.40;51.90;;;10.12;59.36;102071.28;12258041;19;20341;-86
2022/09/21 02:14:55;;;;;;;;;;;12.30;51.90;;;10.10;59.15;102064.41;12257128;19;19950;-86
2022/09/21 02:19:09;;;;;;;;;;;12.30;51.80;;;10.13;59.30;102083.44;12256569;19;19929;-86
2022/09/21 02:23:25;;;;;;;;;;;12.30;51.80;;;9.95;59.19;102050.94;12257647;19;20325;-86
2022/09/21 02:27:26;;;;;;;;;;;12.50;51.90;;;10.03;59.34;102068.13;12259492;19;19925;-86
2022/09/21 02:31:37;;;;;;;;;;;12.30;51.80;;;9.98;59.47;102070.88;12258924;19;19974;-86
2022/09/21 02:36:00;;;;;;;;;;;12.20;51.80;;;9.98;59.35;102073.47;12256781;19;19922;-86
2022/09/21 02:40:14;;;;;;;;;;;12.20;51.80;;;9.94;59.38;102058.84;12257685;19;20282;-86
2022/09/21 02:44:18;;;;;;;;;;;12.20;51.90;;;9.94;59.40;102075.34;12254379;19;20290;-87
2022/09/21 02:48:34;;;;;;;;;;;12.20;51.90;;;9.83;59.24;102053.06;12266546;19;20231;-86
2022/09/21 02:52:39;;;;;;;;;;;12.20;51.80;;;9.85;59.26;102062.56;12262587;19;19943;-86
2022/09/21 02:56:41;;;;;;;;;;;12.20;51.90;;;9.79;59.42;102051.47;12261524;19;19915;-86
2022/09/21 03:00:43;;;;;;;;;;;12.10;51.80;;;9.70;59.42;102050.00;12263543;19;19919;-86
2022/09/21 03:04:46;;;;;;;;;;;12.30;51.80;;;9.74;59.39;102073.31;12260040;19;20023;-86
2022/09/21 03:08:48;;;;;;;;;;;12.00;51.80;;;9.75;59.47;102090.69;12259143;19;19936;-86
2022/09/21 03:12:49;;;;;;;;;;;12.00;51.80;;;9.63;59.26;102074.56;12258455;19;19922;-86
2022/09/21 03:16:51;;;;;;;;;;;12.00;51.80;;;9.72;59.42;102090.78;12255297;19;19907;-86
2022/09/21 03:20:52;;;;;;;;;;;12.30;51.90;;;9.60;59.47;102080.72;12258742;19;20358;-86
2022/09/21 03:24:56;;;;;;;;;;;11.90;51.80;;;9.68;59.37;102090.91;12252669;19;19930;-86
2022/09/21 03:28:58;;;;;;;;;;;11.90;51.80;;;9.34;59.24;102041.50;12257653;19;19921;-86
2022/09/21 03:32:59;;;;;;;;;;;11.90;51.80;;;9.58;59.29;102087.72;12255549;19;19937;-86
2022/09/21 03:37:02;;;;;;;;;;;11.90;51.80;;;9.46;59.49;102082.88;12255311;19;20357;-86
2022/09/21 03:41:04;;;;;;;;;;;11.90;51.80;;;9.58;59.39;102098.16;12254991;19;19915;-87
2022/09/21 03:45:06;;;;;;;;;;;11.80;51.70;;;9.57;59.49;102101.66;12253487;19;20247;-86
2022/09/21 03:49:07;;;;;;;;;;;11.80;51.80;;;9.56;59.39;102097.34;12255192;19;19926;-86
2022/09/21 03:53:10;;;;;;;;;;;11.80;51.80;;;9.54;59.21;102096.53;12254336;19;19918;-86
2022/09/21 03:57:11;;;;;;;;;;;11.80;51.80;;;9.53;59.30;102095.69;12251768;19;19914;-86
2022/09/21 04:01:12;;;;;;;;;;;11.80;51.80;;;9.48;59.42;102099.34;12256648;19;19921;-86
2022/09/21 04:05:15;;;;;;;;;;;11.80;51.80;;;9.54;59.28;102125.22;12249839;19;19915;-86
2022/09/21 04:09:16;;;;;;;;;;;11.80;51.80;;;9.38;59.26;102084.84;12250573;19;19967;-86
2022/09/21 04:13:17;;;;;;;;;;;11.70;51.70;;;9.48;59.33;102112.38;12250313;19;20008;-86
2022/09/21 04:17:19;;;;;;;;;;;11.80;51.90;;;9.30;59.48;102091.13;12248156;19;19911;-86
2022/09/21 04:21:21;;;;;;;;;;;11.70;51.80;;;9.28;59.39;102089.44;12253245;19;20321;-87
2022/09/21 04:25:22;;;;;;;;;;;11.70;51.90;;;9.22;59.58;102090.47;12247648;19;19926;-87
2022/09/21 04:29:24;;;;;;;;;;;11.70;51.90;;;9.29;59.28;102092.03;12251900;19;19911;-86
2022/09/21 04:33:25;;;;;;;;;;;12.00;52.10;;;9.42;59.34;102115.97;12246786;19;19936;-87
2022/09/21 04:37:27;;;;;;;;;;;11.90;52.10;;;9.24;59.50;102088.69;12251276;19;19928;-86
2022/09/21 04:41:28;;;;;;;;;;;11.60;52.00;;;9.22;59.72;102087.03;12252483;19;20333;-87
2022/09/21 04:45:31;;;;;;;;;;;11.60;52.00;;;9.34;59.52;102106.66;12249536;19;19918;-87
2022/09/21 04:49:32;;;;;;;;;;;11.60;52.00;;;9.35;59.57;102105.78;12252184;19;19930;-86
2022/09/21 04:53:35;;;;;;;;;;;11.60;52.00;;;9.16;59.60;102077.63;12250760;19;19914;-86
2022/09/21 04:57:37;;;;;;;;;;;11.60;52.00;;;9.31;59.47;102110.22;12249403;19;19914;-86
2022/09/21 05:01:38;;;;;;;;;;;11.80;52.10;;;9.17;59.58;102089.75;12249553;19;19915;-86
2022/09/21 05:05:48;;;;;;;;;;;11.60;52.00;;;9.30;59.46;102117.19;12248458;19;19943;-87
2022/09/21 05:10:02;;;;;;;;;;;11.60;52.00;;;9.25;59.46;102111.25;12251968;19;19925;-86
2022/09/21 05:14:03;;;;;;;;;;;11.60;52.00;;;9.27;59.65;102119.03;12252285;19;20400;-86
2022/09/21 05:18:05;;;;;;;;;;;11.50;52.00;;;9.18;59.58;102109.72;12253793;19;20379;-87
2022/09/21 05:22:06;;;;;;;;;;;11.50;52.00;;;9.22;59.59;102118.28;12258318;19;19919;-87
2022/09/21 05:26:07;;;;;;;;;;;11.50;52.10;;;9.17;59.52;102125.38;12263334;19;20011;-86
2022/09/21 05:30:09;;;;;;;;;;;11.50;52.10;;;9.10;59.60;102122.09;12262336;19;19918;-87
2022/09/21 05:34:20;;;;;;;;;;;11.50;52.10;;;9.29;59.59;102154.59;12265715;19;19982;-88
2022/09/21 05:38:22;;;;;;;;;;;11.50;52.10;;;9.29;59.55;102159.81;12264817;19;19933;-85
2022/09/21 05:42:23;;;;;;;;;;;11.50;52.10;;;9.02;59.58;102111.88;12269728;19;19907;-85
2022/09/21 05:46:51;;;;;;;;;;;11.50;52.20;;;9.38;59.71;102169.13;12266355;19;19911;-85
2022/09/21 05:51:26;;;;;;;;;;;11.60;52.40;;;9.45;59.61;102164.56;12266924;19;19923;-85
2022/09/21 05:55:35;;;;;;;;;;;11.60;52.40;;;9.55;59.74;102166.03;12266188;19;20409;-85
2022/09/21 05:59:57;;;;;;;;;;;11.70;52.50;;;9.55;59.79;102154.75;12266142;19;20273;-84
2022/09/21 06:03:58;;;;;;;;;;;11.80;52.70;;;9.57;59.60;102150.38;12265724;19;19918;-85
2022/09/21 06:08:00;;;;;;;;;;;11.80;52.80;;;9.79;59.69;102163.66;12268801;19;19932;-85
2022/09/21 06:12:02;;;;;;;;;;;12.00;53.00;;;9.81;59.86;102154.88;12262082;19;19927;-85
2022/09/21 06:16:03;;;;;;;;;;;12.00;53.10;;;9.69;59.63;102108.28;12262277;19;19918;-84
2022/09/21 06:20:06;;;;;;;;;;;12.10;53.20;;;9.87;59.65;102118.16;12261948;19;19911;-85
2022/09/21 06:24:07;;;;;;;;;;;12.30;53.30;;;10.15;59.74;102151.25;12259109;19;19931;-86
2022/09/21 06:28:11;;;;;;;;;;;12.40;53.40;;;10.32;59.80;102158.63;12263556;19;20330;-84
2022/09/21 06:32:12;;;;;;;;;;;12.50;53.60;;;10.15;59.93;102112.97;12255986;19;20271;-84
2022/09/21 06:36:15;;;;;;;;;;;12.70;53.70;;;10.65;59.90;102163.69;12260114;19;19919;-86
2022/09/21 06:40:16;;;;;;;;;;;12.70;53.80;;;10.80;60.06;102169.25;12258517;19;19907;-85
2022/09/21 06:44:18;;;;;;;;;;;12.90;53.90;;;10.74;59.94;102143.31;12269517;19;19963;-86
2022/09/21 06:48:20;;;;;;;;;;;13.00;53.90;;;11.00;60.01;102168.59;12262016;19;19941;-88
2022/09/21 06:52:22;;;;;;;;;;;13.10;54.00;;;11.07;60.03;102164.00;12262383;19;20309;-86
2022/09/21 06:56:29;;;;;;;;;;;13.50;54.20;;;11.26;59.96;102172.94;12255681;19;19947;-86
2022/09/21 07:00:30;;;;;;;;;;;13.30;54.10;;;11.38;59.82;102173.41;12250029;19;19946;-86
2022/09/21 07:04:32;;;;;;;;;;;13.40;54.10;;;11.48;60.09;102186.09;12250271;19;20354;-86
2022/09/21 07:08:34;;;;;;;;;;;13.80;54.30;;;11.52;60.00;102179.84;12246653;19;19927;-86
2022/09/21 07:12:36;;;;;;;;;;;13.70;54.30;;;11.56;60.01;102169.25;12248115;19;19926;-85
2022/09/21 07:16:37;;;;;;;;;;;13.80;54.30;;;11.61;59.91;102159.50;12248746;19;20271;-85
2022/09/21 07:20:40;;;;;;;;;;;13.80;54.40;;;11.71;60.18;102172.19;12250808;19;19907;-85
2022/09/21 07:24:41;;;;;;;;;;;13.90;54.50;;;11.84;60.16;102184.81;12248397;19;19922;-85
2022/09/21 07:28:43;;;;;;;;;;;14.00;54.50;;;11.73;60.14;102154.66;12251594;19;19914;-85
2022/09/21 07:32:44;;;;;;;;;;;14.10;54.50;;;12.07;60.14;102192.72;12253226;19;19924;-85
2022/09/21 07:36:45;;;;;;;;;;;14.30;54.60;;;12.21;60.14;102201.81;12257795;19;19930;-85
2022/09/21 07:40:47;;;;;;;;;;;14.30;54.60;;;12.05;60.20;102150.03;12258034;19;20392;-85
2022/09/21 07:44:49;;;;;;;;;;;14.40;54.70;;;12.45;60.20;102199.97;12251845;19;20381;-85
2022/09/21 07:48:53;;;;;;;;;;;14.50;54.60;;;12.34;60.29;102158.50;12255442;19;19911;-86
2022/09/21 07:52:55;;;;;;;;;;;15.00;54.90;;;12.76;60.25;102204.88;12256344;19;19922;-85
2022/09/21 08:01:16;;;;;;;;;;;15.00;54.80;;;12.89;60.18;102184.25;12253801;19;19915;-85
2022/09/21 08:05:18;;;;;;;;;;;15.00;55.00;;;13.03;60.27;102197.63;12253504;19;19921;-85
2022/09/21 08:09:20;;;;;;;;;;;15.10;55.00;;;13.08;60.38;102187.81;12253456;19;20015;-85
2022/09/21 08:13:21;;;;;;;;;;;15.40;55.00;;;13.21;60.25;102198.63;12248260;19;19919;-85
2022/09/21 08:17:23;;;;;;;;;;;15.30;55.10;;;13.30;60.33;102193.00;12246033;19;19977;-86
2022/09/21 08:21:24;;;;;;;;;;;15.40;55.10;;;13.43;60.30;102195.97;12250073;19;19918;-86
2022/09/21 08:25:26;;;;;;;;;;;15.50;55.00;;;13.54;60.37;102193.72;12246555;19;19918;-86
2022/09/21 08:29:28;;;;;;;;;;;15.70;55.20;;;13.61;60.28;102200.41;12250507;19;19921;-86
2022/09/21 08:33:29;;;;;;;;;;;15.70;55.20;;;13.79;60.43;102203.97;12248306;19;19915;-85
2022/09/21 08:37:32;;;;;;;;;;;15.80;55.20;;;13.86;60.48;102202.78;12250667;19;19927;-86
2022/09/21 08:42:03;;;;;;;;;;;16.00;55.00;;;14.12;60.51;102222.63;12252968;19;19998;-85
2022/09/21 08:46:09;;;;;;;;;;;16.00;55.00;;;14.19;60.51;102214.44;12251570;19;20293;-87
2022/09/21 08:50:43;;;;;;;;;;;16.20;55.10;;;14.37;60.46;102221.47;12241833;19;19923;-86
2022/09/21 08:54:50;;;;;;;;;;;16.30;55.10;;;14.48;60.40;102228.84;12248513;19;19919;-85
2022/09/21 08:58:51;;;;;;;;;;;16.40;55.10;;;14.57;60.45;102224.03;12259305;19;19922;-85
2022/09/21 09:03:23;;;;;;;;;;;16.50;55.10;;;14.70;60.46;102218.19;12257563;19;19918;-83
2022/09/21 09:07:38;;;;;;;;;;;16.70;55.00;;;14.91;60.29;102234.69;12259611;19;19923;-84
2022/09/21 09:11:56;;;;;;;;;;;16.80;55.00;;;15.02;60.39;102233.22;12256779;19;20324;-82
2022/09/21 09:16:10;;;;;;;;;;;16.90;54.90;;;15.13;60.24;102239.75;12251681;19;19915;-82
2022/09/21 09:20:11;;;;;;;;;;;17.10;54.80;;;15.23;60.41;102227.84;12262905;19;19918;-87
2022/09/21 09:24:30;;;;;;;;;;;17.10;54.70;;;15.32;60.39;102227.34;12257883;19;19915;-86
2022/09/21 09:28:46;;;;;;;;;;;17.30;54.90;;;15.42;60.40;102236.50;12257622;19;19910;-87
2022/09/21 09:33:35;;;;;;;;;;;17.30;54.70;;;15.54;60.34;102237.63;12256934;19;19927;-87
2022/09/21 09:37:40;;;;;;;;;;;17.40;54.70;;;15.63;60.25;102225.75;12250430;19;19936;-86
2022/09/21 09:41:41;;;;;;;;;;;17.60;54.60;;;15.78;60.25;102229.41;12255481;19;19923;-86
2022/09/21 09:46:10;;;;;;;;;;;17.70;54.60;;;15.90;60.53;102220.84;12254594;19;19932;-86
2022/09/21 09:50:26;;;;;;;;;;;17.80;54.80;;;16.22;60.56;102232.25;12255581;19;19926;-87
2022/09/21 09:54:28;;;;;;;;;;;18.00;54.90;;;16.45;60.55;102231.00;12258153;19;20322;-87
2022/09/21 09:58:50;;;;;;;;;;;18.20;54.90;;;16.43;60.58;102190.69;12255119;19;19911;-87
2022/09/21 10:02:54;;;;;;;;;;;18.30;54.80;;;16.90;60.39;102226.72;12261844;19;19923;-87
2022/09/21 10:06:56;;;;;;;;;;;18.60;54.70;;;17.08;60.28;102219.53;12256770;19;19932;-87
2022/09/21 10:10:58;;;;;;;;;;;19.00;54.80;;;16.93;59.91;102151.78;12261045;19;19937;-87
2022/09/21 10:15:00;;;;;;;;;;;19.00;54.60;;;17.48;60.07;102211.88;12251235;19;19910;-87
2022/09/21 10:19:02;;;;;;;;;;;19.30;54.40;;;17.74;59.95;102222.63;12250905;19;19939;-87
2022/09/21 10:23:04;;;;;;;;;;;19.50;54.30;;;17.83;59.73;102219.47;12251223;19;19923;-86
2022/09/21 10:27:27;;;;;;;;;;;19.60;54.00;;;17.90;59.48;102223.41;12247893;19;19915;-86
2022/09/21 10:31:29;;;;;;;;;;;19.70;53.70;;;17.91;59.64;102214.53;12254657;19;20424;-86
2022/09/21 10:35:37;;;;;;;;;;;19.80;53.60;;;18.02;59.87;102211.22;12249271;19;20889;-87
2022/09/21 10:39:45;;;;;;;;;;;19.90;53.40;;;18.24;59.74;102218.66;12255093;19;19919;-86
2022/09/21 10:43:49;;;;;;;;;;;20.10;53.40;;;18.27;59.63;102200.78;12262756;19;19980;-87
2022/09/21 10:48:06;;;;;;;;;;;20.20;53.20;;;18.38;59.67;102202.72;12260285;19;19915;-87
2022/09/21 10:52:08;;;;;;;;;;;20.30;53.60;;;18.44;59.15;102210.25;12259175;19;20345;-87
2022/09/21 10:56:15;;;;;;;;;;;20.70;53.50;;;18.51;59.36;102208.94;12256812;19;19935;-87
2022/09/21 11:00:22;;;;;;;;;;;20.40;52.80;;;18.58;59.54;102214.69;12251302;19;19931;-87
2022/09/21 11:04:47;;;;;;;;;;;20.50;52.90;;;18.69;59.37;102204.25;12256680;19;19919;-87
2022/09/21 11:09:02;;;;;;;;;;;20.60;52.90;;;18.75;59.24;102189.78;12255356;19;19947;-87
2022/09/21 11:13:30;;;;;;;;;;;20.70;52.80;;;18.81;59.12;102176.13;12254241;19;19944;-87
2022/09/21 11:17:38;;;;;;;;;;;20.80;52.30;;;18.81;59.17;102170.00;12250454;19;19911;-86
2022/09/21 11:22:15;;;;;;;;;;;20.90;52.20;;;19.04;59.04;102194.91;12254788;19;19927;-86
2022/09/21 11:26:32;;;;;;;;;;;20.90;51.30;;;19.05;59.02;102191.34;12252962;19;20246;-87
2022/09/21 11:31:11;;;;;;;;;;;20.90;51.90;;;19.12;59.02;102188.16;12260030;19;19918;-88
2022/09/21 11:35:40;;;;;;;;;;;20.80;51.70;;;19.22;59.13;102177.78;12255020;19;19915;-87
2022/09/21 11:40:16;;;;;;;;;;;21.10;52.10;;;19.39;58.62;102184.59;12256510;19;19921;-87
2022/09/21 11:44:47;;;;;;;;;;;21.20;52.10;;;19.41;58.81;102162.31;12255980;19;19919;-87
2022/09/21 11:49:32;;;;;;;;;;;21.30;51.70;;;19.63;58.31;102172.28;12257165;19;20340;-87
2022/09/21 11:54:05;;;;;;;;;;;21.40;52.10;;;19.75;58.55;102167.94;12254294;19;19939;-86
2022/09/21 11:58:28;;;;;;;;;;;21.50;51.90;;;19.63;58.07;102132.50;12249950;19;19951;-87
2022/09/21 12:02:41;;;;;;;;;;;21.60;51.80;;;19.86;58.41;102170.66;12257288;19;20384;-89
2022/09/21 12:06:52;;;;;;;;;;;21.70;50.10;;;19.62;58.18;102116.72;12249616;19;19982;-88
2022/09/21 12:11:36;;;;;;;;;;;21.90;50.30;;;19.95;58.17;102153.22;12255373;19;19935;-87
2022/09/21 12:15:47;;;;;;;;;;;21.80;50.80;;;20.04;57.83;102160.53;12250542;19;19971;-85
2022/09/21 12:20:14;;;;;;;;;;;21.80;50.30;;;20.09;58.11;102154.88;12255502;19;19915;-88
2022/09/21 12:24:23;;;;;;;;;;;21.90;50.50;;;20.06;57.83;102147.16;12250077;19;20309;-85
2022/09/21 12:28:40;;;;;;;;;;;21.90;50.60;;;20.01;57.56;102150.16;12252476;19;19943;-86
2022/09/21 12:32:51;;;;;;;;;;;21.90;50.50;;;19.69;57.73;102088.84;12265025;19;19922;-85
2022/09/21 12:37:14;;;;;;;;;;;22.00;50.60;;;20.12;57.54;102146.72;12256755;19;19927;-85
2022/09/21 12:41:48;;;;;;;;;;;22.00;50.40;;;20.14;57.77;102138.63;12266818;19;19942;-86
2022/09/21 12:46:00;;;;;;;;;;;22.00;50.00;;;20.07;57.26;102122.34;12266670;19;19923;-87
2022/09/21 12:50:06;;;;;;;;;;;22.00;49.40;;;19.88;57.51;102102.47;12264859;19;20360;-86
2022/09/21 12:54:20;;;;;;;;;;;22.00;49.90;;;19.89;57.33;102108.59;12265455;19;19926;-86
2022/09/21 12:58:29;;;;;;;;;;;21.90;50.30;;;20.07;57.45;102125.00;12261959;19;19923;-86
2022/09/21 13:03:09;;;;;;;;;;;21.90;50.20;;;20.06;57.37;102132.09;12263894;19;19923;-87
2022/09/21 13:07:31;;;;;;;;;;;22.00;49.90;;;20.06;57.20;102136.53;12265672;19;19919;-86
2022/09/21 13:11:33;;;;;;;;;;;21.90;50.10;;;20.01;57.05;102117.47;12270387;19;19932;-86
2022/09/21 13:15:49;;;;;;;;;;;21.90;50.50;;;20.01;57.37;102098.91;12265164;19;19952;-86
2022/09/21 13:20:05;;;;;;;;;;;21.90;50.00;;;20.05;57.13;102118.94;12266264;19;19991;-87
2022/09/21 13:24:24;;;;;;;;;;;22.00;49.90;;;20.09;57.11;102125.69;12264059;19;19918;-85
2022/09/21 13:28:49;;;;;;;;;;;22.00;50.20;;;20.10;57.11;102125.59;12265596;19;19931;-88
2022/09/21 13:32:51;;;;;;;;;;;22.00;50.10;;;20.03;57.23;102115.56;12266665;19;19932;-86
2022/09/21 13:37:14;;;;;;;;;;;21.90;50.00;;;20.09;56.95;102123.94;12263361;19;19925;-85
2022/09/21 13:41:16;;;;;;;;;;;21.90;49.60;;;20.10;57.24;102122.13;12264916;19;20331;-85
2022/09/21 13:45:17;;;;;;;;;;;22.00;50.00;;;20.08;56.77;102124.88;12260965;19;19914;-85
2022/09/21 13:49:28;;;;;;;;;;;22.00;49.80;;;19.98;56.73;102110.59;12264952;19;19998;-85
2022/09/21 13:53:38;;;;;;;;;;;22.00;49.90;;;20.02;56.63;102113.88;12258650;19;19919;-86
2022/09/21 13:57:44;;;;;;;;;;;21.90;49.20;;;19.98;56.66;102120.34;12256843;19;19911;-85
2022/09/21 14:01:50;;;;;;;;;;;22.00;49.40;;;19.94;57.04;102101.16;12259334;19;19918;-86
2022/09/21 14:06:07;;;;;;;;;;;21.80;49.80;;;19.95;56.84;102112.63;12255133;19;19947;-86
2022/09/21 14:10:15;;;;;;;;;;;21.90;49.60;;;19.91;56.93;102116.47;12260253;19;19915;-87
2022/09/21 14:14:25;;;;;;;;;;;21.80;49.40;;;19.87;56.57;102118.47;12253809;19;20238;-86
2022/09/21 14:18:36;;;;;;;;;;;21.80;49.40;;;19.69;56.47;102088.84;12256097;19;20346;-86
2022/09/21 14:22:39;;;;;;;;;;;21.80;49.50;;;19.69;56.33;102091.50;12259670;19;19945;-87
2022/09/21 14:26:40;;;;;;;;;;;21.70;49.30;;;19.81;56.44;102105.66;12256220;19;19936;-86
2022/09/21 14:30:54;;;;;;;;;;;21.70;49.60;;;19.79;56.16;102094.31;12259310;19;19915;-86
2022/09/21 14:35:00;;;;;;;;;;;21.70;49.60;;;19.47;56.62;102039.19;12253662;19;19929;-86
2022/09/21 14:39:04;;;;;;;;;;;21.60;49.20;;;19.69;56.20;102083.56;12255394;19;19931;-86
2022/09/21 14:43:19;;;;;;;;;;;21.70;49.30;;;19.72;56.46;102083.31;12264002;19;19918;-87
2022/09/21 14:47:36;;;;;;;;;;;21.90;49.40;;;19.58;56.42;102062.25;12263514;19;19947;-86
2022/09/21 14:52:16;;;;;;;;;;;21.70;49.30;;;19.76;56.51;102100.69;12258778;19;20397;-86
2022/09/21 14:56:42;;;;;;;;;;;21.60;48.60;;;19.72;56.11;102096.56;12260732;19;19922;-87
2022/09/21 15:00:48;;;;;;;;;;;21.60;49.30;;;19.61;56.25;102088.53;12254482;19;19925;-87
2022/09/21 15:04:52;;;;;;;;;;;21.50;48.80;;;19.64;56.37;102088.31;12254573;19;19914;-86
2022/09/21 15:14:15;;;;;;;;;;;21.50;48.50;;;19.54;55.97;102080.16;12253419;19;22347;-86
2022/09/21 15:18:21;;;;;;;;;;;21.40;49.00;;;19.36;55.97;102055.84;12253410;19;19915;-86
2022/09/21 15:22:23;;;;;;;;;;;21.60;49.20;;;19.53;56.35;102081.13;12254307;19;19917;-86
2022/09/21 15:26:32;;;;;;;;;;;21.40;49.10;;;19.50;55.95;102067.25;12255797;19;19918;-86
2022/09/21 15:30:44;;;;;;;;;;;21.40;49.10;;;19.49;55.84;102076.13;12252572;19;19915;-86
2022/09/21 15:34:46;;;;;;;;;;;21.40;48.90;;;19.51;56.21;102077.72;12250014;19;20361;-86
2022/09/21 15:38:48;;;;;;;;;;;21.50;49.10;;;19.44;55.94;102073.81;12253045;19;19930;-87
2022/09/21 15:43:18;;;;;;;;;;;21.40;49.30;;;19.38;55.98;102063.66;12252420;19;20015;-86
2022/09/21 15:47:24;;;;;;;;;;;21.40;49.20;;;19.44;55.79;102072.03;12253204;19;20377;-87
2022/09/21 15:51:38;;;;;;;;;;;21.40;49.40;;;19.48;55.84;102071.81;12251592;19;19982;-86
2022/09/21 15:55:46;;;;;;;;;;;21.40;49.00;;;19.12;55.80;102020.47;12247256;19;19919;-86
2022/09/21 15:59:47;;;;;;;;;;;21.30;49.40;;;19.39;55.77;102068.84;12249084;19;20348;-86
2022/09/21 16:04:01;;;;;;;;;;;21.50;49.00;;;19.44;55.70;102084.41;12249444;19;19931;-86
2022/09/21 16:08:17;;;;;;;;;;;21.30;49.00;;;19.36;55.78;102081.44;12250760;19;19918;-86
2022/09/21 16:12:24;;;;;;;;;;;21.30;48.70;;;19.40;55.66;102094.38;12252163;19;19923;-86
2022/09/21 16:16:26;;;;;;;;;;;21.30;48.80;;;19.34;55.59;102088.69;12254115;19;19925;-86
2022/09/21 16:20:38;;;;;;;;;;;21.20;48.80;;;19.28;55.33;102079.38;12247957;19;19926;-86
2022/09/21 16:24:53;;;;;;;;;;;21.30;48.90;;;19.30;55.33;102090.69;12243192;19;19923;-86
2022/09/21 16:28:58;;;;;;;;;;;21.20;48.70;;;18.99;55.50;102050.47;12250264;19;19915;-86
2022/09/21 16:32:59;;;;;;;;;;;21.40;48.80;;;19.25;55.72;102098.09;12249279;19;19923;-86
2022/09/21 16:37:01;;;;;;;;;;;21.10;48.90;;;19.10;55.30;102078.84;12250746;19;19918;-86
2022/09/21 16:41:03;;;;;;;;;;;21.40;48.80;;;19.01;55.51;102075.03;12256779;19;19926;-87
2022/09/21 16:45:10;;;;;;;;;;;21.00;48.80;;;18.99;55.51;102082.25;12253824;19;19914;-87
2022/09/21 16:49:17;;;;;;;;;;;21.00;48.80;;;18.82;55.62;102066.66;12253637;19;19919;-87
2022/09/21 16:53:22;;;;;;;;;;;21.30;49.30;;;18.91;55.58;102089.88;12250933;19;19925;-87
2022/09/21 16:57:24;;;;;;;;;;;21.00;48.90;;;18.87;55.40;102092.81;12254528;19;19928;-87
2022/09/21 17:01:26;;;;;;;;;;;20.80;48.90;;;18.55;55.26;102050.81;12253817;19;19919;-87
2022/09/21 17:05:28;;;;;;;;;;;20.80;49.00;;;18.77;55.65;102105.84;12249530;19;20377;-87
2022/09/21 17:09:32;;;;;;;;;;;20.70;49.00;;;18.41;55.45;102050.91;12252206;19;19926;-87
2022/09/21 17:13:33;;;;;;;;;;;20.80;49.10;;;18.67;55.63;102110.03;12245113;19;19925;-86
2022/09/21 17:17:35;;;;;;;;;;;20.60;49.10;;;18.44;55.49;102090.38;12251437;19;19922;-87
2022/09/21 17:21:37;;;;;;;;;;;20.80;49.10;;;18.48;55.47;102119.19;12260343;19;20618;-86
2022/09/21 17:25:38;;;;;;;;;;;20.40;49.00;;;17.73;55.19;102020.13;12254758;19;20321;-87
2022/09/21 17:29:47;;;;;;;;;;;20.40;49.00;;;18.23;55.37;102130.53;12259904;19;19939;-87
2022/09/21 17:33:52;;;;;;;;;;;20.30;48.90;;;18.05;55.38;102115.88;12258108;19;19919;-86
2022/09/21 17:37:56;;;;;;;;;;;20.10;48.90;;;17.94;55.47;102113.91;12257917;19;19943;-86
2022/09/21 17:42:03;;;;;;;;;;;20.00;48.90;;;17.82;55.50;102114.69;12259903;19;19922;-87
2022/09/21 17:46:26;;;;;;;;;;;19.90;49.00;;;17.73;55.53;102126.66;12255015;19;19922;-87
2022/09/21 17:50:28;;;;;;;;;;;19.80;49.00;;;17.52;55.39;102112.16;12259394;19;19930;-87
2022/09/21 17:54:30;;;;;;;;;;;19.70;49.00;;;17.21;55.40;102083.22;12257830;19;19918;-87
2022/09/21 17:58:57;;;;;;;;;;;19.60;49.00;;;17.44;55.47;102126.69;12257783;19;19903;-89
2022/09/21 18:02:58;;;;;;;;;;;19.40;49.10;;;17.25;55.70;102110.25;12258092;19;19915;-87
2022/09/21 18:07:00;;;;;;;;;;;19.40;49.20;;;17.23;55.58;102123.56;12258125;19;20260;-87
2022/09/21 18:11:29;;;;;;;;;;;19.30;49.30;;;17.21;55.70;102135.16;12259874;19;19914;-87
2022/09/21 18:15:43;;;;;;;;;;;19.20;49.30;;;17.12;55.81;102136.59;12256073;19;19926;-87
2022/09/21 18:20:14;;;;;;;;;;;19.10;49.40;;;17.03;55.83;102147.69;12251329;19;19919;-87
2022/09/21 18:24:26;;;;;;;;;;;19.00;49.40;;;16.84;56.06;102129.44;12251510;19;20089;-87
2022/09/21 18:28:34;;;;;;;;;;;18.90;49.50;;;16.82;55.89;102144.50;12251014;19;20265;-87
2022/09/21 18:32:48;;;;;;;;;;;18.80;49.50;;;16.77;55.98;102142.16;12255309;19;19919;-87
2022/09/21 18:37:15;;;;;;;;;;;18.80;49.50;;;16.69;55.97;102148.75;12253022;19;19911;-86
2022/09/21 18:41:54;;;;;;;;;;;18.70;49.50;;;16.54;55.73;102139.97;12261241;19;19911;-87
2022/09/21 18:46:03;;;;;;;;;;;18.60;49.50;;;16.46;55.81;102152.75;12257941;19;19929;-87
2022/09/21 18:50:28;;;;;;;;;;;18.50;49.60;;;16.38;55.87;102161.94;12257791;19;19956;-87
2022/09/21 18:54:30;;;;;;;;;;;18.40;49.60;;;16.12;55.85;102149.38;12256915;19;19915;-87